Auburn, WA

5:37 AM PST on January 27, 2015 (GMT -0800)
Celery Ave | Change Station
CLOSE
Current Station
Personal Weather Station
Location: Algona, WA
Elevation: 66 ft
Nearby Weather Stations

Elev 66 ft 47.29 °N, 122.25 °W | Updated 1 minute ago

Overcast
Overcast
47.6 °F
Feels Like 48 °F
N
0.0
Wind Variable Wind from SSW
Gusts 1.0 mph

Today
High -- | Low -- °F
--% Chance of Precip.
Yesterday
High -- | Low -- °F
Precip. -- in
7:40 AM 5:03 PM
First Quarter, 54% visible
Pressure 30.02 in
Visibility 10.0 miles
Clouds Overcast 2100 ft
Windchill 48 °F
Dew Point 46 °F
Humidity 93%
Rainfall 0.00 in
Snow Depth Not available.
UV 0 out of 12
Pollen 4.80 out of 12
Air Quality Not available.
Flu Activity Not available.
METAR KSEA 271253Z 18006KT 10SM OVC021 10/08 A3000 RMK AO2 SLP166 T01000078

More Conditions Fewer Conditions

Pressure 30.02 in
Visibility 10.0 miles
Clouds Overcast 2100 ft
Windchill 48 °F
Dew Point 46 °F
Humidity 93%
Rainfall 0.00 in
Snow Depth Not available.
UV 0 out of 12
Pollen 4.80 out of 12
Air Quality Not available.
Flu Activity Not available.
METAR KSEA 271253Z 18006KT 10SM OVC021 10/08 A3000 RMK AO2 SLP166 T01000078

More Conditions Fewer Conditions

10-Day Weather Forecast

Almanac

Astronomy

Jan. 27, 2015 Rise Set
Actual Time
Civil Twilight
Nautical Twilight
Astronomical Twilight
Moon
Length of Visible Light
Length of Day
Tomorrow will be .
, % of the Moon is Illuminated

Today's Extremes

State Highs State Lows

Community

WunderPhotos

Upload Photos

1,790,614 photos uploaded!

WunderBlogs® & News

Nearby

Air Quality

  Air Quality AQ Index Pollutant
Not available.

Snow Depth

Station Depth Elevation

Earthquake Activity

City Distance Mag. Time & Date
Minimum magnitude displayed is 2.5.

Coastal Water Temperatures

Place Temperature

Nearby Weather Stations